Time;durP1;ratioP1;P1;durP2;ratioP2;P2;SDS_P1;SDS_P2;PMS_P1;PMS_P2;Temp;Humidity;BMP_temperature;BMP_pressure;BME280_temperature;BME280_humidity;BME280_pressure;Samples;Min_cycle;Max_cycle;Signal;HPM_P1;HPM_P2
2022/02/22 00:01:15;;;;;;;6.45;2.78;;;-8.60;99.90;;;;;;4936438;29;20016;-68
2022/02/22 00:03:41;;;;;;;6.22;2.47;;;-8.70;99.90;;;;;;4936535;29;20535;-68
2022/02/22 00:06:07;;;;;;;4.47;2.70;;;-8.70;99.90;;;;;;4936183;28;20055;-69
2022/02/22 00:08:34;;;;;;;5.30;2.47;;;-8.70;99.90;;;;;;4936287;29;20031;-69
2022/02/22 00:11:00;;;;;;;5.10;2.42;;;-8.80;99.90;;;;;;4936134;29;20028;-69
2022/02/22 00:13:27;;;;;;;4.80;2.47;;;-8.90;99.90;;;;;;4936206;29;20032;-69
2022/02/22 00:15:54;;;;;;;3.95;2.47;;;-8.90;99.90;;;;;;4936153;28;20027;-69
2022/02/22 00:18:19;;;;;;;4.93;2.67;;;-8.90;99.90;;;;;;4935131;29;20038;-69
2022/02/22 00:20:46;;;;;;;3.85;2.92;;;-9.00;99.90;;;;;;4936189;29;20028;-69
2022/02/22 00:23:12;;;;;;;6.15;2.45;;;-9.00;99.90;;;;;;4936060;29;20102;-69
2022/02/22 00:25:38;;;;;;;3.72;2.28;;;-9.00;99.90;;;;;;4936068;29;20028;-68
2022/02/22 00:28:04;;;;;;;5.38;2.65;;;-9.10;99.90;;;;;;4935758;29;20391;-69
2022/02/22 00:30:30;;;;;;;8.27;2.40;;;-9.10;99.90;;;;;;4936020;29;20024;-69
2022/02/22 00:32:56;;;;;;;6.53;2.83;;;-9.10;99.90;;;;;;4935866;29;20028;-68
2022/02/22 00:35:21;;;;;;;5.05;2.35;;;-9.20;99.90;;;;;;4935579;29;20020;-68
2022/02/22 00:37:47;;;;;;;6.07;2.22;;;-9.30;99.90;;;;;;4935643;29;20138;-68
2022/02/22 00:40:14;;;;;;;6.35;2.60;;;-9.40;99.90;;;;;;4935948;29;20166;-68
2022/02/22 00:42:40;;;;;;;5.40;2.60;;;-9.40;99.90;;;;;;4935700;29;20107;-69
2022/02/22 00:45:07;;;;;;;3.60;2.65;;;-9.40;99.90;;;;;;4935464;29;20106;-69
2022/02/22 00:47:33;;;;;;;7.07;3.00;;;-9.50;99.90;;;;;;4935443;29;20038;-69
2022/02/22 00:49:59;;;;;;;2.35;2.15;;;-9.50;99.90;;;;;;4935562;29;20101;-69
2022/02/22 00:52:25;;;;;;;6.90;2.92;;;-9.50;99.90;;;;;;4935408;29;20083;-69
2022/02/22 00:54:52;;;;;;;4.45;2.28;;;-9.50;99.90;;;;;;4935613;29;20115;-69
2022/02/22 00:57:18;;;;;;;4.97;2.85;;;-9.60;99.90;;;;;;4935215;29;20032;-67
2022/02/22 00:59:44;;;;;;;6.63;2.55;;;-9.70;99.90;;;;;;4935353;29;20571;-67
2022/02/22 01:02:10;;;;;;;6.43;2.90;;;-9.70;99.90;;;;;;4935230;29;20020;-67
2022/02/22 01:04:36;;;;;;;3.75;2.38;;;-9.80;99.90;;;;;;4935199;29;20365;-67
2022/02/22 01:07:02;;;;;;;3.65;2.83;;;-9.90;99.90;;;;;;4935095;29;20024;-67
2022/02/22 01:09:27;;;;;;;3.80;2.55;;;-9.90;99.90;;;;;;4935405;29;20444;-67
2022/02/22 01:11:53;;;;;;;3.83;2.20;;;-9.90;99.90;;;;;;4934984;29;20027;-67
2022/02/22 01:14:19;;;;;;;3.55;2.78;;;-10.00;99.90;;;;;;4934996;29;20091;-67
2022/02/22 01:16:45;;;;;;;3.72;2.60;;;-10.10;99.90;;;;;;4935215;29;20023;-67
2022/02/22 01:19:10;;;;;;;6.13;2.83;;;-10.10;99.90;;;;;;4934941;29;20036;-67
2022/02/22 01:21:36;;;;;;;6.65;2.40;;;-10.10;99.90;;;;;;4934930;29;20039;-67
2022/02/22 01:24:06;;;;;;;7.72;2.55;;;-10.20;99.90;;;;;;4934929;29;20460;-67
2022/02/22 01:26:33;;;;;;;6.53;2.72;;;-10.20;99.90;;;;;;4934916;29;20032;-67
2022/02/22 01:28:59;;;;;;;3.35;2.33;;;-10.20;99.50;;;;;;4934794;29;20062;-67
2022/02/22 01:31:26;;;;;;;5.15;2.45;;;-10.20;98.50;;;;;;4935037;29;20492;-67
2022/02/22 01:33:55;;;;;;;3.60;2.55;;;-10.30;97.70;;;;;;4934846;29;20032;-67
2022/02/22 01:36:24;;;;;;;3.67;2.40;;;-10.30;97.00;;;;;;4934625;29;20476;-67
2022/02/22 01:38:52;;;;;;;5.75;2.50;;;-10.40;96.40;;;;;;4934658;29;20048;-67
2022/02/22 01:41:22;;;;;;;7.10;2.80;;;-10.50;96.00;;;;;;4935037;29;20032;-67
2022/02/22 01:43:48;;;;;;;;;;;-10.50;96.10;;;;;;4935382;29;20167;-67
2022/02/22 01:46:14;;;;;;;4.80;2.60;;;-10.60;95.20;;;;;;4934749;29;19938;-69
2022/02/22 01:48:40;;;;;;;6.68;2.67;;;-10.60;95.30;;;;;;4934791;29;20059;-70
2022/02/22 01:51:07;;;;;;;2.75;2.13;;;-10.70;95.20;;;;;;4934755;29;20027;-70
2022/02/22 01:53:33;;;;;;;6.32;2.63;;;-10.70;95.20;;;;;;4934838;29;20562;-70
2022/02/22 01:56:00;;;;;;;2.88;2.38;;;-10.80;95.30;;;;;;4934786;29;20067;-70
2022/02/22 01:58:28;;;;;;;5.13;2.30;;;-10.80;95.60;;;;;;4934509;29;20036;-70
2022/02/22 02:00:53;;;;;;;13.23;2.90;;;-10.90;95.10;;;;;;4935178;29;20035;-70
2022/02/22 02:03:19;;;;;;;3.45;2.42;;;-10.90;95.10;;;;;;4934580;29;20028;-70
2022/02/22 02:05:45;;;;;;;3.55;2.83;;;-10.90;95.90;;;;;;4934699;29;20032;-70
2022/02/22 02:08:11;;;;;;;4.38;2.70;;;-11.00;95.90;;;;;;4934558;29;20030;-70
2022/02/22 02:10:37;;;;;;;3.85;2.38;;;-11.10;96.40;;;;;;4934615;29;20483;-70
2022/02/22 02:13:03;;;;;;;5.43;2.90;;;-11.10;96.30;;;;;;4934480;29;20075;-70
2022/02/22 02:15:29;;;;;;;4.70;2.90;;;-11.10;96.90;;;;;;4934517;29;20032;-70
2022/02/22 02:17:55;;;;;;;9.05;2.65;;;-11.10;97.90;;;;;;4934459;29;20044;-70
2022/02/22 02:20:21;;;;;;;6.03;2.65;;;-11.10;98.80;;;;;;4934462;29;20032;-69
2022/02/22 02:22:47;;;;;;;2.65;2.20;;;-11.10;99.40;;;;;;4934563;29;20032;-69
2022/02/22 02:54:17;;;;;;;3.75;2.70;;;-11.70;99.90;;;;;;4936683;29;20110;-71
2022/02/22 02:56:43;;;;;;;5.18;2.72;;;-11.60;99.90;;;;;;4937663;28;20031;-71
2022/02/22 02:59:10;;;;;;;5.05;2.70;;;-11.60;99.90;;;;;;4937542;29;20050;-71
2022/02/22 03:01:38;;;;;;;9.45;2.60;;;-11.50;99.90;;;;;;4937490;29;20067;-71
2022/02/22 03:37:43;;;;;;;4.72;2.30;;;-11.70;99.70;;;;;;5519493;23;20065;-69
2022/02/22 03:40:09;;;;;;;5.38;2.95;;;-11.70;99.40;;;;;;4975149;28;20023;-69
2022/02/22 03:42:39;;;;;;;4.82;2.50;;;-11.70;99.30;;;;;;4975644;28;20047;-69
2022/02/22 03:45:05;;;;;;;6.03;2.55;;;-11.80;99.30;;;;;;4975680;28;20381;-70
2022/02/22 03:47:30;;;;;;;5.38;2.33;;;-11.80;99.60;;;;;;4975211;28;20026;-70
2022/02/22 03:49:56;;;;;;;5.40;2.58;;;-11.90;99.80;;;;;;4975325;28;20035;-70
2022/02/22 03:52:22;;;;;;;6.32;2.58;;;-11.90;99.70;;;;;;4974108;28;20509;-70
2022/02/22 03:54:47;;;;;;;3.25;2.30;;;-11.90;99.90;;;;;;4975120;28;20050;-70
2022/02/22 03:57:13;;;;;;;4.45;2.60;;;-11.90;99.90;;;;;;4974695;28;20067;-70
2022/02/22 03:59:39;;;;;;;3.22;2.30;;;-11.90;99.80;;;;;;4974987;28;20041;-70
2022/02/22 04:02:04;;;;;;;11.43;3.05;;;-11.90;99.90;;;;;;4975023;28;20549;-70
2022/02/22 04:04:30;;;;;;;4.10;2.63;;;-11.90;99.90;;;;;;4974764;28;20027;-70
2022/02/22 04:06:56;;;;;;;4.20;2.40;;;-11.90;99.90;;;;;;4974811;28;20569;-70
2022/02/22 04:09:21;;;;;;;6.80;2.70;;;-11.90;99.90;;;;;;4974874;28;20042;-70
2022/02/22 04:11:47;;;;;;;4.47;2.50;;;-11.90;99.90;;;;;;4975014;28;20492;-69
2022/02/22 04:14:13;;;;;;;4.50;2.60;;;-11.90;99.90;;;;;;4974557;28;20518;-69
2022/02/22 04:16:39;;;;;;;5.10;2.72;;;-11.90;99.90;;;;;;4974870;28;20031;-69
2022/02/22 04:19:04;;;;;;;8.23;3.40;;;-11.90;99.90;;;;;;4973324;28;20105;-70
2022/02/22 04:21:30;;;;;;;4.22;2.70;;;-11.90;99.90;;;;;;4974463;28;20034;-70
2022/02/22 04:23:56;;;;;;;3.78;2.90;;;-11.90;99.90;;;;;;4974397;28;20631;-70
2022/02/22 04:26:21;;;;;;;4.10;2.60;;;-12.00;99.90;;;;;;4974288;28;20027;-70
2022/02/22 04:28:47;;;;;;;4.80;3.00;;;-12.00;99.90;;;;;;4973084;28;20153;-70
2022/02/22 04:31:13;;;;;;;7.05;2.65;;;-12.00;99.90;;;;;;4974246;28;20405;-70
2022/02/22 04:33:38;;;;;;;4.65;2.45;;;-12.00;99.90;;;;;;4974256;28;20037;-69
2022/02/22 04:36:04;;;;;;;3.90;2.85;;;-12.00;99.90;;;;;;4974295;28;20034;-69
2022/02/22 04:38:30;;;;;;;8.02;3.40;;;-12.00;99.90;;;;;;4957372;28;20047;-69
2022/02/22 04:40:56;;;;;;;6.10;2.67;;;-11.90;99.90;;;;;;4955138;29;20023;-69
2022/02/22 04:43:22;;;;;;;3.03;2.33;;;-11.90;99.90;;;;;;4954694;28;20031;-69
2022/02/22 04:45:48;;;;;;;5.32;2.53;;;-12.00;99.90;;;;;;4955023;28;20114;-69
2022/02/22 04:48:13;;;;;;;4.70;2.50;;;-11.90;99.90;;;;;;4954540;29;20456;-70
2022/02/22 04:50:39;;;;;;;3.05;2.40;;;-12.00;99.90;;;;;;4955031;29;20030;-69
2022/02/22 04:53:08;;;;;;;3.42;2.70;;;-12.10;99.90;;;;;;4954501;29;20031;-69
2022/02/22 04:55:34;;;;;;;3.15;2.85;;;-12.10;99.90;;;;;;4954739;28;20030;-69
2022/02/22 04:57:59;;;;;;;3.65;2.78;;;-12.20;99.90;;;;;;4954695;29;20027;-69
2022/02/22 05:00:25;;;;;;;5.10;2.42;;;-12.20;99.90;;;;;;4954483;29;20483;-70
2022/02/22 05:02:51;;;;;;;4.75;2.53;;;-12.30;99.90;;;;;;4954470;28;20059;-69
2022/02/22 05:05:17;;;;;;;5.78;2.78;;;-12.30;99.90;;;;;;4954247;28;20094;-69
2022/02/22 05:07:43;;;;;;;4.63;2.63;;;-12.30;99.90;;;;;;4954302;29;20035;-69
2022/02/22 05:10:09;;;;;;;3.10;2.65;;;-12.30;99.90;;;;;;4954614;28;20061;-69
2022/02/22 05:12:35;;;;;;;8.82;2.92;;;-12.30;99.90;;;;;;4954625;28;20378;-69
2022/02/22 05:15:01;;;;;;;5.65;2.33;;;-12.30;99.90;;;;;;4954217;29;20119;-69
2022/02/22 05:17:27;;;;;;;9.43;2.80;;;-12.30;99.90;;;;;;4954070;28;20027;-69
2022/02/22 05:19:52;;;;;;;6.88;2.58;;;-12.20;99.90;;;;;;4954323;28;20074;-69
2022/02/22 05:22:18;;;;;;;3.42;2.58;;;-12.20;99.90;;;;;;4954111;29;20070;-69
2022/02/22 05:24:44;;;;;;;3.50;2.60;;;-12.10;99.90;;;;;;4954142;29;20031;-69
2022/02/22 05:27:09;;;;;;;4.22;2.90;;;-12.20;99.90;;;;;;4954403;29;20032;-69
2022/02/22 05:29:35;;;;;;;5.78;2.78;;;-12.10;99.90;;;;;;4954005;28;20486;-70
2022/02/22 05:32:01;;;;;;;3.20;2.60;;;-12.10;99.90;;;;;;4954074;28;20038;-66
2022/02/22 05:34:30;;;;;;;4.00;2.75;;;-12.10;99.90;;;;;;4954116;28;20034;-66
2022/02/22 05:36:59;;;;;;;5.10;2.58;;;-12.10;99.90;;;;;;4953679;28;20055;-66
2022/02/22 05:39:24;;;;;;;3.75;2.60;;;-12.10;99.90;;;;;;4953912;28;20069;-69
2022/02/22 05:41:50;;;;;;;3.70;2.30;;;-11.80;99.90;;;;;;4953832;29;20023;-70
2022/02/22 05:44:16;;;;;;;6.25;3.03;;;-10.30;99.90;;;;;;4939826;28;20035;-70
2022/02/22 05:46:42;;;;;;;8.63;2.75;;;-9.90;99.90;;;;;;4934528;29;20590;-69
2022/02/22 05:49:07;;;;;;;6.75;2.72;;;-10.40;99.90;;;;;;4934301;29;20036;-69
2022/02/22 05:51:33;;;;;;;3.92;2.30;;;-11.00;99.90;;;;;;4934231;29;20052;-69
2022/02/22 05:53:59;;;;;;;3.65;2.67;;;-11.30;99.90;;;;;;4934044;29;20034;-69
2022/02/22 05:56:25;;;;;;;3.67;2.47;;;-11.50;99.90;;;;;;4933909;29;20027;-67
2022/02/22 05:58:50;;;;;;;7.93;3.05;;;-11.70;99.90;;;;;;4933801;29;20036;-67
2022/02/22 06:01:16;;;;;;;5.32;2.40;;;-11.80;99.90;;;;;;4933867;29;20030;-67
2022/02/22 06:03:42;;;;;;;4.50;2.70;;;-11.80;99.90;;;;;;4934325;29;20039;-67
2022/02/22 06:06:07;;;;;;;6.18;2.42;;;-11.90;99.90;;;;;;4934408;29;20024;-71
2022/02/22 06:08:33;;;;;;;5.43;2.58;;;-11.90;99.90;;;;;;4932335;29;20016;-70
2022/02/22 06:10:59;;;;;;;4.22;2.97;;;-12.00;99.90;;;;;;4934229;29;20110;-69
2022/02/22 06:13:24;;;;;;;5.53;2.60;;;-12.00;99.90;;;;;;4934367;29;20353;-69
2022/02/22 06:15:50;;;;;;;6.65;2.90;;;-12.00;99.90;;;;;;4935067;29;20034;-69
2022/02/22 06:18:16;;;;;;;4.57;3.20;;;-12.10;99.90;;;;;;4938037;29;20061;-69
2022/02/22 06:20:42;;;;;;;4.35;2.67;;;-12.10;99.90;;;;;;4938393;29;20024;-69
2022/02/22 06:23:08;;;;;;;3.60;2.60;;;-12.10;99.90;;;;;;4937906;29;20031;-68
2022/02/22 06:25:34;;;;;;;7.57;2.47;;;-12.10;99.90;;;;;;4938251;29;20507;-65
2022/02/22 06:28:00;;;;;;;5.90;2.53;;;-12.10;99.90;;;;;;4938317;29;20060;-66
2022/02/22 06:30:26;;;;;;;5.90;2.88;;;-11.50;99.90;;;;;;4938268;29;20030;-66
2022/02/22 06:32:52;;;;;;;6.80;2.65;;;-11.50;99.90;;;;;;4937752;29;20038;-66
2022/02/22 06:35:19;;;;;;;6.15;2.53;;;-11.70;99.90;;;;;;4938135;29;20135;-66
2022/02/22 06:37:45;;;;;;;2.72;2.50;;;-11.80;99.90;;;;;;4937610;29;20044;-66
2022/02/22 06:40:11;;;;;;;3.47;2.60;;;-11.80;99.90;;;;;;4937954;29;20031;-66
2022/02/22 06:42:38;;;;;;;6.45;2.42;;;-11.90;99.90;;;;;;4937888;29;20024;-66
2022/02/22 06:45:05;;;;;;;5.30;2.75;;;-12.00;99.90;;;;;;4937765;29;20378;-66
2022/02/22 06:47:31;;;;;;;3.17;2.25;;;-12.10;99.90;;;;;;4937634;29;20032;-66
2022/02/22 06:49:57;;;;;;;6.05;2.25;;;-12.00;99.90;;;;;;4937737;29;20050;-68
2022/02/22 06:52:23;;;;;;;7.25;2.42;;;-10.60;99.90;;;;;;4937618;29;20479;-68
2022/02/22 06:54:49;;;;;;;9.93;2.97;;;-10.20;99.90;;;;;;4937533;29;20034;-67
2022/02/22 06:57:15;;;;;;;4.43;2.63;;;-10.60;99.90;;;;;;4937378;29;20028;-72
2022/02/22 06:59:41;;;;;;;7.97;4.13;;;-11.00;99.90;;;;;;4937424;29;20098;-70
2022/02/22 07:02:08;;;;;;;7.97;3.55;;;-11.30;99.90;;;;;;4937386;29;20024;-69
2022/02/22 07:04:34;;;;;;;7.25;2.47;;;-11.50;99.90;;;;;;4937163;29;20031;-69
2022/02/22 07:07:01;;;;;;;8.77;3.10;;;-11.60;99.90;;;;;;4937298;29;20028;-70
2022/02/22 07:09:27;;;;;;;34.28;8.90;;;-11.80;99.90;;;;;;4936855;29;20498;-68
2022/02/22 07:11:53;;;;;;;14.15;4.55;;;-12.00;99.90;;;;;;4936907;29;20032;-70
2022/02/22 07:14:18;;;;;;;7.28;4.35;;;-12.10;99.90;;;;;;4937009;29;20035;-68
2022/02/22 07:16:44;;;;;;;44.20;22.45;;;-12.20;99.90;;;;;;4936898;29;20387;-68
2022/02/22 07:19:10;;;;;;;31.88;16.42;;;-12.30;99.90;;;;;;4933489;29;20123;-67
2022/02/22 07:21:35;;;;;;;9.32;6.18;;;-12.30;99.90;;;;;;4934922;29;20035;-67
2022/02/22 07:24:01;;;;;;;12.35;3.55;;;-11.90;99.90;;;;;;4935751;29;20390;-67
2022/02/22 07:26:27;;;;;;;4.55;3.33;;;-12.00;99.90;;;;;;4935665;29;20032;-67
2022/02/22 07:28:52;;;;;;;4.60;3.00;;;-12.10;99.90;;;;;;4936246;29;20036;-67
2022/02/22 07:31:18;;;;;;;8.25;4.10;;;-12.10;99.90;;;;;;4936508;29;20024;-67
2022/02/22 07:33:44;;;;;;;4.82;2.88;;;-12.10;99.90;;;;;;4937168;29;20035;-68
2022/02/22 07:36:12;;;;;;;9.07;3.05;;;-12.10;99.90;;;;;;4936860;29;20050;-68
2022/02/22 07:38:38;;;;;;;6.93;3.00;;;-12.10;99.90;;;;;;4931816;29;20051;-67
2022/02/22 07:41:04;;;;;;;14.63;3.85;;;-12.10;99.90;;;;;;4935150;29;20035;-67
2022/02/22 07:43:30;;;;;;;6.07;2.92;;;-12.00;99.90;;;;;;4936017;29;20088;-67
2022/02/22 07:45:55;;;;;;;3.75;2.63;;;-12.10;99.30;;;;;;4936280;29;20059;-67
2022/02/22 07:48:21;;;;;;;5.50;2.55;;;-12.20;99.80;;;;;;4935914;29;20495;-68
2022/02/22 07:50:47;;;;;;;4.32;2.72;;;-12.20;99.90;;;;;;4935954;29;20099;-68
2022/02/22 07:53:13;;;;;;;5.38;3.22;;;-12.20;99.90;;;;;;4935887;29;20028;-68
2022/02/22 07:55:39;;;;;;;7.97;2.75;;;-12.20;99.90;;;;;;4935621;29;20031;-68
2022/02/22 07:58:04;;;;;;;7.13;2.67;;;-12.20;99.90;;;;;;4935809;29;20031;-67
2022/02/22 08:00:30;;;;;;;7.53;3.08;;;-12.20;99.90;;;;;;4936050;29;20066;-67
2022/02/22 08:02:56;;;;;;;8.35;3.33;;;-12.10;99.90;;;;;;4935998;29;20023;-67
2022/02/22 08:05:23;;;;;;;7.47;4.30;;;-12.00;99.90;;;;;;4935677;29;20035;-67
2022/02/22 08:07:48;;;;;;;5.03;2.95;;;-11.90;99.90;;;;;;4935992;29;20038;-68
2022/02/22 08:10:14;;;;;;;5.18;2.63;;;-11.80;99.90;;;;;;4935779;29;20487;-68
2022/02/22 08:12:40;;;;;;;4.25;2.38;;;-11.90;99.90;;;;;;4935687;29;20023;-68
2022/02/22 08:15:06;;;;;;;5.15;2.50;;;-11.90;99.90;;;;;;4935545;29;20032;-67
2022/02/22 08:17:32;;;;;;;5.38;2.78;;;-11.80;99.90;;;;;;4935577;29;20395;-68
2022/02/22 08:19:58;;;;;;;9.57;3.58;;;-11.40;99.90;;;;;;4935331;29;20024;-68
2022/02/22 08:22:24;;;;;;;4.80;3.47;;;-10.90;99.90;;;;;;4935221;29;20387;-67
2022/02/22 08:24:50;;;;;;;6.00;3.50;;;-10.90;99.90;;;;;;4935172;29;20621;-68
2022/02/22 08:27:15;;;;;;;3.83;2.50;;;-11.10;99.90;;;;;;4935210;29;20024;-68
2022/02/22 08:29:41;;;;;;;6.03;2.95;;;-11.10;99.90;;;;;;4934941;29;20040;-68
2022/02/22 08:32:07;;;;;;;4.60;2.80;;;-11.20;99.90;;;;;;4934922;29;20015;-68
2022/02/22 08:34:32;;;;;;;5.90;2.75;;;-11.20;99.90;;;;;;4934652;29;20039;-68
2022/02/22 08:36:58;;;;;;;6.05;3.10;;;-11.20;99.90;;;;;;4935017;29;20048;-68
2022/02/22 08:39:25;;;;;;;5.82;3.10;;;-11.20;99.90;;;;;;4934359;29;20043;-68
2022/02/22 08:41:52;;;;;;;5.70;2.88;;;-11.20;99.90;;;;;;4935151;29;20034;-64
2022/02/22 08:44:18;;;;;;;9.77;4.63;;;-11.20;99.90;;;;;;4934593;29;20027;-64
2022/02/22 08:46:43;;;;;;;10.27;4.15;;;-11.20;99.90;;;;;;4935101;29;20032;-65
2022/02/22 08:49:09;;;;;;;12.73;5.07;;;-11.10;99.90;;;;;;4935039;29;20483;-66
2022/02/22 08:51:35;;;;;;;7.35;4.25;;;-11.00;99.90;;;;;;4934421;29;20023;-66
2022/02/22 08:54:02;;;;;;;9.50;3.85;;;-11.00;99.90;;;;;;4934680;29;20055;-71
2022/02/22 08:56:28;;;;;;;7.55;3.15;;;-10.90;99.90;;;;;;4934715;29;20596;-68
2022/02/22 08:58:54;;;;;;;4.90;3.00;;;-10.80;99.90;;;;;;4934930;29;20044;-69
2022/02/22 09:01:20;;;;;;;7.03;3.90;;;-10.80;99.90;;;;;;4934763;29;20595;-68
2022/02/22 09:03:46;;;;;;;8.95;4.43;;;-10.70;99.90;;;;;;4935192;29;20086;-65
2022/02/22 09:06:12;;;;;;;10.88;4.38;;;-10.70;99.90;;;;;;4933369;29;20443;-64
2022/02/22 09:08:38;;;;;;;8.85;3.78;;;-10.70;99.90;;;;;;4934665;29;20200;-67
2022/02/22 09:11:03;;;;;;;8.57;4.07;;;-10.60;99.90;;;;;;4934678;29;20030;-65
2022/02/22 09:13:29;;;;;;;7.95;4.07;;;-10.60;99.90;;;;;;4934505;29;20032;-65
2022/02/22 09:15:55;;;;;;;3.60;2.63;;;-10.60;99.90;;;;;;4934859;29;20087;-65
2022/02/22 09:18:21;;;;;;;8.00;3.33;;;-10.60;99.90;;;;;;4933332;29;20043;-65
2022/02/22 09:20:47;;;;;;;11.63;3.28;;;-10.60;99.90;;;;;;4934846;29;20020;-65
2022/02/22 09:23:12;;;;;;;8.13;3.47;;;-10.50;99.90;;;;;;4934660;29;20035;-65
2022/02/22 09:25:38;;;;;;;6.07;3.25;;;-10.40;99.90;;;;;;4934468;29;20338;-65
2022/02/22 09:28:08;;;;;;;6.00;3.00;;;-10.40;99.90;;;;;;4933307;29;20034;-67
2022/02/22 09:30:35;;;;;;;4.68;2.83;;;-10.30;99.90;;;;;;4948656;29;20055;-66
2022/02/22 09:33:03;;;;;;;5.70;2.95;;;-10.20;99.90;;;;;;4934652;29;20089;-66
2022/02/22 09:35:29;;;;;;;6.57;3.20;;;-10.10;99.90;;;;;;4933996;29;20024;-66
2022/02/22 09:37:56;;;;;;;7.93;3.10;;;-10.10;99.90;;;;;;4933904;29;20129;-65
2022/02/22 09:40:23;;;;;;;6.85;2.47;;;-10.00;99.90;;;;;;4934062;29;20027;-66
2022/02/22 09:42:48;;;;;;;5.93;2.80;;;-10.00;99.90;;;;;;4933997;29;20031;-66
2022/02/22 09:45:15;;;;;;;6.70;2.92;;;-9.90;99.90;;;;;;4934219;29;20028;-66
2022/02/22 09:47:42;;;;;;;9.68;3.83;;;-9.80;99.90;;;;;;4933479;29;20032;-66
2022/02/22 09:50:09;;;;;;;21.23;6.40;;;-9.80;99.90;;;;;;4935541;29;20119;-66
2022/02/22 09:52:35;;;;;;;13.52;5.20;;;-9.80;99.90;;;;;;4936924;29;20029;-66
2022/02/22 09:55:02;;;;;;;9.20;5.00;;;-9.70;99.90;;;;;;4938276;29;20527;-66
2022/02/22 09:57:27;;;;;;;6.60;4.10;;;-9.70;99.90;;;;;;4937699;29;20028;-66
2022/02/22 09:59:53;;;;;;;7.82;3.85;;;-9.60;99.90;;;;;;4938043;29;20042;-66
2022/02/22 10:02:19;;;;;;;7.07;4.13;;;-9.60;99.90;;;;;;4938594;29;20036;-65
2022/02/22 10:04:47;;;;;;;7.20;3.33;;;-9.50;99.90;;;;;;4936771;29;20075;-66
2022/02/22 10:07:13;;;;;;;3.13;2.40;;;-9.40;99.90;;;;;;4937106;29;20027;-67
2022/02/22 10:10:02;;;;;;;4.00;2.67;;;-9.30;99.90;;;;;;4937553;29;20585;-67
2022/02/22 10:12:36;;;;;;;4.78;2.78;;;-8.60;99.90;;;;;;4938486;29;20032;-67
2022/02/22 10:15:06;;;;;;;7.78;4.25;;;-8.60;99.90;;;;;;4938390;29;20036;-67
2022/02/22 10:17:36;;;;;;;9.50;3.58;;;-8.70;99.90;;;;;;4937900;29;20123;-67
2022/02/22 10:20:03;;;;;;;7.47;3.13;;;-8.70;99.90;;;;;;4938134;29;20071;-67
2022/02/22 10:22:30;;;;;;;7.13;3.47;;;-8.60;99.90;;;;;;4937969;29;20522;-69
2022/02/22 10:25:07;;;;;;;8.05;3.38;;;-8.10;99.90;;;;;;4938046;29;20393;-68
2022/02/22 10:27:42;;;;;;;6.43;3.15;;;-7.80;99.90;;;;;;4937708;29;20067;-68
2022/02/22 10:30:26;;;;;;;6.55;3.20;;;-7.90;99.90;;;;;;4937479;29;20543;-67
2022/02/22 10:32:52;;;;;;;8.27;3.40;;;-8.00;99.90;;;;;;4937373;29;20039;-69
2022/02/22 10:35:27;;;;;;;4.43;2.58;;;-8.00;99.90;;;;;;4937306;29;20091;-68
2022/02/22 10:37:53;;;;;;;9.18;2.97;;;-8.10;99.90;;;;;;4936755;29;20475;-68
2022/02/22 10:40:31;;;;;;;6.05;2.55;;;-8.00;99.90;;;;;;4937417;29;20063;-67
2022/02/22 10:42:57;;;;;;;4.65;2.45;;;-8.00;99.90;;;;;;4936110;29;20031;-67
2022/02/22 10:45:24;;;;;;;7.97;2.67;;;-7.90;99.90;;;;;;4937170;29;20039;-67
2022/02/22 10:47:50;;;;;;;1.33;1.20;;;-7.90;99.90;;;;;;4937581;29;20436;-65
2022/02/22 10:50:24;;;;;;;7.53;3.20;;;-5.80;99.90;;;;;;4936915;29;20729;-67
2022/02/22 10:52:50;;;;;;;10.95;3.38;;;-2.40;99.90;;;;;;4935140;29;20058;-67
2022/02/22 10:55:16;;;;;;;6.40;2.80;;;-3.10;99.90;;;;;;4937230;29;20027;-68
2022/02/22 10:57:41;;;;;;;8.52;2.58;;;-4.20;99.90;;;;;;4936050;29;20046;-68
2022/02/22 11:00:08;;;;;;;5.90;2.28;;;-4.90;99.90;;;;;;4937519;29;20031;-68
2022/02/22 11:02:34;;;;;;;6.78;2.20;;;-5.50;99.90;;;;;;4936756;29;20019;-68
2022/02/22 11:05:01;;;;;;;8.02;2.53;;;-5.80;99.90;;;;;;4937384;29;20043;-68
2022/02/22 11:07:29;;;;;;;6.88;3.00;;;-6.10;99.90;;;;;;4937322;29;20020;-69
2022/02/22 11:09:56;;;;;;;5.68;2.60;;;-6.20;99.90;;;;;;4937377;29;20487;-68
2022/02/22 11:12:35;;;;;;;6.13;2.85;;;-6.30;99.90;;;;;;4937323;29;20036;-68
2022/02/22 11:15:04;;;;;;;6.38;2.45;;;-6.40;99.90;;;;;;4937263;29;20036;-68
2022/02/22 11:17:30;;;;;;;5.68;2.60;;;-6.40;99.90;;;;;;4937031;29;20039;-68
2022/02/22 11:19:56;;;;;;;16.95;2.97;;;-6.40;99.90;;;;;;4937134;29;20036;-68
2022/02/22 11:22:24;;;;;;;4.07;2.47;;;-6.60;99.90;;;;;;4936848;29;20400;-68
2022/02/22 11:24:57;;;;;;;6.53;2.70;;;-6.80;99.90;;;;;;4935036;29;20043;-68
2022/02/22 11:27:35;;;;;;;6.75;3.00;;;-6.80;99.90;;;;;;4933524;29;20031;-68
2022/02/22 11:30:14;;;;;;;8.32;2.75;;;-6.80;99.90;;;;;;4934399;29;20427;-68
2022/02/22 11:32:53;;;;;;;10.48;3.03;;;-6.70;99.90;;;;;;4935202;29;20114;-69
2022/02/22 11:35:20;;;;;;;4.80;2.55;;;-6.70;99.90;;;;;;4939330;29;20047;-68
2022/02/22 11:37:46;;;;;;;3.60;2.05;;;-6.50;99.90;;;;;;4935183;29;20134;-68
2022/02/22 11:40:26;;;;;;;4.10;2.67;;;-6.30;99.90;;;;;;4935488;29;20391;-65
2022/02/22 11:42:52;;;;;;;6.40;3.00;;;-5.70;99.90;;;;;;4936836;29;20040;-65
2022/02/22 11:45:25;;;;;;;8.05;3.53;;;-5.80;99.90;;;;;;4936733;29;20020;-66
2022/02/22 11:48:13;;;;;;;8.20;2.83;;;-6.00;99.90;;;;;;4936836;29;20515;-66
2022/02/22 11:50:40;;;;;;;3.55;2.80;;;-5.90;99.90;;;;;;4936590;29;20078;-69
2022/02/22 11:53:12;;;;;;;5.05;2.67;;;-5.80;99.90;;;;;;4936838;29;20034;-70
2022/02/22 11:55:38;;;;;;;6.70;3.05;;;-5.80;99.90;;;;;;4936535;29;20046;-69
2022/02/22 11:58:14;;;;;;;5.55;2.85;;;-5.90;99.90;;;;;;4936066;29;20046;-69
2022/02/22 12:00:45;;;;;;;5.63;2.70;;;-6.00;99.90;;;;;;4936598;29;20034;-69
2022/02/22 12:03:14;;;;;;;4.80;3.03;;;-6.00;99.90;;;;;;4936500;29;20547;-69
2022/02/22 12:05:43;;;;;;;7.65;3.20;;;-6.10;99.90;;;;;;4936375;29;20619;-69
2022/02/22 12:08:20;;;;;;;6.35;2.85;;;-6.20;99.90;;;;;;4936468;29;20785;-69
2022/02/22 12:10:55;;;;;;;5.07;2.75;;;-6.00;99.90;;;;;;4936308;29;20075;-69
2022/02/22 12:13:24;;;;;;;4.20;2.67;;;-6.00;99.90;;;;;;4935594;29;20098;-69
2022/02/22 12:15:51;;;;;;;9.30;3.47;;;-6.00;99.90;;;;;;4935814;29;20035;-69
2022/02/22 12:18:25;;;;;;;8.13;2.80;;;-5.90;99.90;;;;;;4936299;29;20165;-69
2022/02/22 12:20:53;;;;;;;4.35;2.80;;;-6.00;99.90;;;;;;4936051;29;20487;-69
2022/02/22 12:23:23;;;;;;;6.13;3.00;;;-6.00;99.90;;;;;;4936308;29;20059;-70
2022/02/22 12:25:51;;;;;;;5.55;2.63;;;-6.00;99.90;;;;;;4935976;29;20039;-70
2022/02/22 12:28:17;;;;;;;8.20;3.00;;;-5.90;99.90;;;;;;4935907;29;20032;-70
2022/02/22 12:30:44;;;;;;;8.40;3.05;;;-5.40;99.90;;;;;;4935827;29;20028;-69
2022/02/22 12:33:10;;;;;;;5.50;3.05;;;-5.40;99.90;;;;;;4935906;29;20024;-69
2022/02/22 12:35:42;;;;;;;9.15;3.67;;;-5.50;99.90;;;;;;4934319;29;20078;-70
2022/02/22 12:38:28;;;;;;;6.45;2.65;;;-5.60;99.90;;;;;;4935372;29;20047;-69
2022/02/22 12:40:54;;;;;;;8.15;3.30;;;-5.50;99.90;;;;;;4934025;29;20031;-69
2022/02/22 12:43:20;;;;;;;7.57;3.08;;;-4.70;99.90;;;;;;4935357;29;20028;-68
2022/02/22 12:45:51;;;;;;;8.57;3.05;;;-4.80;99.90;;;;;;4935175;29;20027;-69
2022/02/22 12:48:18;;;;;;;6.65;3.05;;;-5.10;99.90;;;;;;4935333;29;20034;-69
2022/02/22 12:50:53;;;;;;;6.50;3.42;;;-5.40;99.90;;;;;;4935153;29;20039;-69
2022/02/22 12:53:32;;;;;;;6.40;2.83;;;-5.50;99.90;;;;;;4935648;29;20027;-72
2022/02/22 12:55:58;;;;;;;5.95;3.13;;;-5.50;99.90;;;;;;4935073;29;20047;-71
2022/02/22 12:58:36;;;;;;;8.50;2.83;;;-5.50;99.90;;;;;;4935303;29;20107;-71
2022/02/22 13:01:17;;;;;;;4.78;3.00;;;-5.50;99.90;;;;;;4935686;29;20576;-72
2022/02/22 13:03:46;;;;;;;5.28;2.67;;;-5.50;99.90;;;;;;4935151;29;20047;-70
2022/02/22 13:06:12;;;;;;;4.60;2.83;;;-5.20;99.90;;;;;;4934927;29;20020;-70
2022/02/22 13:08:39;;;;;;;6.10;3.33;;;-3.50;99.90;;;;;;4934335;29;20030;-70
2022/02/22 13:11:05;;;;;;;12.77;2.80;;;-3.00;99.90;;;;;;4935081;29;20023;-70
2022/02/22 13:13:31;;;;;;;9.60;2.97;;;-3.40;99.90;;;;;;4934985;29;20518;-69
2022/02/22 13:16:11;;;;;;;13.02;3.30;;;-3.20;99.90;;;;;;4934786;29;20027;-67
2022/02/22 13:18:37;;;;;;;11.68;3.05;;;-2.40;99.90;;;;;;4934737;29;20039;-67
2022/02/22 13:21:15;;;;;;;6.30;2.50;;;-2.70;99.90;;;;;;4935196;29;20028;-67
2022/02/22 13:23:41;;;;;;;9.40;2.78;;;-3.10;99.90;;;;;;4934898;29;20083;-67
2022/02/22 13:26:07;;;;;;;8.18;3.05;;;-3.50;99.90;;;;;;4934705;29;20024;-67
2022/02/22 13:28:38;;;;;;;3.78;2.20;;;-3.80;99.90;;;;;;4935063;29;20435;-67
2022/02/22 13:31:15;;;;;;;5.50;2.85;;;-4.10;99.90;;;;;;4935071;29;20023;-67
2022/02/22 13:33:42;;;;;;;8.82;2.85;;;-4.40;99.90;;;;;;4934948;29;20035;-67
2022/02/22 13:36:14;;;;;;;7.30;3.22;;;-4.50;99.90;;;;;;4934755;29;20034;-67
2022/02/22 13:38:41;;;;;;;8.70;3.05;;;-4.60;99.90;;;;;;4934548;29;20419;-67
2022/02/22 13:41:12;;;;;;;5.60;3.50;;;-4.60;99.90;;;;;;4934831;29;20056;-67
2022/02/22 13:43:39;;;;;;;10.73;3.45;;;-4.60;99.90;;;;;;4934696;29;20036;-67